createdAt,value
2022-12-22T00:01:28.128Z,0.63
2022-12-22T00:04:27.991Z,0.77
2022-12-22T00:07:28.015Z,0.79
2022-12-22T00:10:27.942Z,0.69
2022-12-22T00:13:27.957Z,0.7
2022-12-22T00:16:28.031Z,0.54
2022-12-22T00:19:27.944Z,0.76
2022-12-22T00:22:28.050Z,0.71
2022-12-22T00:25:27.991Z,0.91
2022-12-22T00:28:27.986Z,0.57
2022-12-22T00:31:28.060Z,0.63
2022-12-22T00:34:32.400Z,0.8
2022-12-22T00:37:28.001Z,0.89
2022-12-22T00:40:28.027Z,0.86
2022-12-22T00:43:27.986Z,0.96
2022-12-22T00:46:28.027Z,0.84
2022-12-22T00:49:28.039Z,0.7
2022-12-22T00:52:28.041Z,1.03
2022-12-22T00:55:28.031Z,0.78
2022-12-22T00:58:28.051Z,0.76
2022-12-22T01:01:28.115Z,0.81
2022-12-22T01:04:28.614Z,0.89
2022-12-22T01:07:28.070Z,1.1
2022-12-22T01:10:27.995Z,1
2022-12-22T01:13:28.078Z,0.79
2022-12-22T01:16:28.131Z,0.87
2022-12-22T01:19:28.053Z,0.88
2022-12-22T01:22:28.001Z,0.59
2022-12-22T01:25:28.088Z,0.79
2022-12-22T01:28:28.018Z,0.95
2022-12-22T01:31:28.067Z,0.9
2022-12-22T01:34:28.008Z,0.71
2022-12-22T01:37:28.104Z,0.74
2022-12-22T01:40:28.084Z,0.86
2022-12-22T01:43:28.039Z,0.86
2022-12-22T01:46:28.171Z,0.66
2022-12-22T01:49:28.024Z,0.46
2022-12-22T01:52:28.100Z,0.55
2022-12-22T01:55:28.112Z,0.35
2022-12-22T01:58:28.012Z,0.72
2022-12-22T02:01:28.151Z,0.43
2022-12-22T02:04:28.068Z,0.51
2022-12-22T02:07:28.134Z,0.84
2022-12-22T02:10:28.178Z,0.66
2022-12-22T02:13:28.117Z,0.93
2022-12-22T02:16:28.153Z,0.61
2022-12-22T02:19:28.174Z,0.67
2022-12-22T02:22:28.072Z,0.37
2022-12-22T02:25:28.166Z,0.58
2022-12-22T02:28:28.141Z,0.55
2022-12-22T02:31:28.126Z,0.52
2022-12-22T02:34:28.086Z,0.5
2022-12-22T02:37:28.156Z,0.61
2022-12-22T02:40:28.046Z,0.56
2022-12-22T02:43:28.159Z,0.5
2022-12-22T02:46:28.193Z,0.34
2022-12-22T02:49:28.126Z,0.5
2022-12-22T02:52:28.910Z,0.56
2022-12-22T02:55:28.282Z,0.35
2022-12-22T02:58:28.168Z,0.47
2022-12-22T03:01:28.169Z,0.53
2022-12-22T03:04:28.263Z,0.56
2022-12-22T03:07:28.098Z,0.59
2022-12-22T03:10:28.218Z,0.63
2022-12-22T03:13:28.084Z,0.51
2022-12-22T03:16:28.149Z,0.53
2022-12-22T03:19:28.150Z,0.56
2022-12-22T03:22:28.145Z,0.63
2022-12-22T03:25:28.239Z,0.57
2022-12-22T03:28:28.227Z,0.39
2022-12-22T03:31:28.175Z,0.82
2022-12-22T03:34:28.242Z,0.93
2022-12-22T03:37:28.190Z,0.99
2022-12-22T03:40:28.190Z,0.84
2022-12-22T03:43:28.161Z,0.7
2022-12-22T03:46:28.185Z,0.6
2022-12-22T03:49:28.221Z,0.76
2022-12-22T03:52:28.157Z,0.31
2022-12-22T03:55:28.230Z,0.58
2022-12-22T03:58:28.196Z,0.8
2022-12-22T04:01:28.302Z,0.7
2022-12-22T04:04:28.221Z,0.51
2022-12-22T04:07:28.208Z,0.83
2022-12-22T04:10:28.162Z,0.69
2022-12-22T04:13:28.232Z,0.83
2022-12-22T04:16:28.270Z,0.86
2022-12-22T04:19:28.179Z,0.91
2022-12-22T04:22:28.160Z,1.11
2022-12-22T04:25:28.147Z,0.97
2022-12-22T04:28:28.245Z,0.95
2022-12-22T04:31:28.192Z,1.34
2022-12-22T04:34:28.186Z,1.01
2022-12-22T04:37:28.187Z,0.92
2022-12-22T04:40:28.215Z,1.02
2022-12-22T04:43:28.192Z,0.81
2022-12-22T04:46:28.219Z,1.17
2022-12-22T04:49:28.189Z,1.1
2022-12-22T04:52:28.197Z,1.36
2022-12-22T04:55:28.272Z,1.01
2022-12-22T04:58:28.271Z,1.55
2022-12-22T05:01:28.284Z,0.75
2022-12-22T05:04:28.249Z,0.72
2022-12-22T05:07:28.213Z,1.12
2022-12-22T05:10:28.255Z,0.8
2022-12-22T05:13:28.239Z,1.03
2022-12-22T05:16:28.221Z,0.59
2022-12-22T05:19:30.804Z,0.68
2022-12-22T05:22:28.279Z,0.57
2022-12-22T05:25:33.023Z,1.14
2022-12-22T05:28:28.208Z,1.3
2022-12-22T05:31:28.265Z,1.42
2022-12-22T05:34:28.206Z,0.76
2022-12-22T05:37:28.244Z,0.98
2022-12-22T05:40:28.232Z,0.93
2022-12-22T05:43:28.290Z,0.46
2022-12-22T05:46:28.261Z,0.52
2022-12-22T05:49:28.328Z,0.92
2022-12-22T05:52:28.430Z,0.77
2022-12-22T05:55:28.227Z,1.35
2022-12-22T05:58:28.318Z,1.25
2022-12-22T06:01:28.357Z,1.06
2022-12-22T06:04:28.316Z,0.86
2022-12-22T06:07:28.361Z,1.12
2022-12-22T06:10:28.264Z,1.07
2022-12-22T06:13:28.350Z,0.89
2022-12-22T06:16:28.335Z,0.67
2022-12-22T06:19:28.328Z,0.85
2022-12-22T06:22:28.334Z,1.21
2022-12-22T06:25:28.327Z,0.91
2022-12-22T06:28:28.275Z,0.79
2022-12-22T06:31:28.368Z,0.51
2022-12-22T06:34:28.373Z,0.67
2022-12-22T06:37:28.332Z,0.79
2022-12-22T06:40:28.376Z,0.36
2022-12-22T06:43:28.256Z,0.92
2022-12-22T06:46:28.366Z,0.87
2022-12-22T06:49:28.312Z,0.57
2022-12-22T06:52:28.393Z,0.88
2022-12-22T06:55:28.373Z,0.42
2022-12-22T06:58:28.361Z,0.76
2022-12-22T07:01:28.425Z,0.86
2022-12-22T07:04:28.378Z,1.1
2022-12-22T07:07:28.373Z,1.04
2022-12-22T07:10:28.336Z,0.44
2022-12-22T07:13:28.288Z,0.75
2022-12-22T07:16:28.373Z,0.4
2022-12-22T07:19:28.360Z,0.53
2022-12-22T07:22:30.544Z,0.73
2022-12-22T07:25:28.345Z,0.57
2022-12-22T07:28:28.373Z,0.85
2022-12-22T07:31:28.383Z,0.8
2022-12-22T07:34:28.317Z,0.7
2022-12-22T07:37:28.398Z,0.57
2022-12-22T07:40:28.379Z,0.52
2022-12-22T07:43:28.416Z,0.57
2022-12-22T07:46:28.453Z,0.49
2022-12-22T07:49:28.408Z,1.06
2022-12-22T07:52:28.332Z,0.65
2022-12-22T07:55:28.401Z,0.81
2022-12-22T07:58:28.530Z,0.93
2022-12-22T08:01:28.503Z,1.07
2022-12-22T08:04:28.510Z,1.24
2022-12-22T08:07:28.432Z,0.74
2022-12-22T08:10:28.394Z,0.8
2022-12-22T08:13:28.408Z,0.87
2022-12-22T08:16:28.490Z,1.6
2022-12-22T08:19:28.432Z,0.81
2022-12-22T08:22:28.473Z,0.73
2022-12-22T08:25:28.397Z,1.02
2022-12-22T08:28:28.413Z,0.66
2022-12-22T08:31:28.416Z,0.76
2022-12-22T08:34:28.450Z,0.75
2022-12-22T08:37:28.444Z,0.39
2022-12-22T08:40:28.380Z,0.51
2022-12-22T08:43:28.399Z,0.66
2022-12-22T08:46:28.411Z,0.84
2022-12-22T08:49:28.483Z,1.43
2022-12-22T08:52:28.431Z,1.62
2022-12-22T08:55:28.463Z,1.18
2022-12-22T08:58:28.459Z,0.98
2022-12-22T09:01:28.492Z,1.06
2022-12-22T09:04:28.492Z,0.53
2022-12-22T09:07:28.436Z,0.46
2022-12-22T09:10:28.471Z,0.52
2022-12-22T09:13:28.521Z,0.73
2022-12-22T09:16:28.442Z,0.35
2022-12-22T09:19:28.495Z,0.73
2022-12-22T09:22:28.991Z,0.97
2022-12-22T09:25:28.476Z,0.89
2022-12-22T09:28:28.621Z,1.51
2022-12-22T09:31:28.423Z,0.63
2022-12-22T09:34:28.627Z,0.8
2022-12-22T09:37:28.491Z,1.13
2022-12-22T09:40:28.570Z,1.63
2022-12-22T09:43:28.462Z,1.45
2022-12-22T09:46:28.571Z,1.29
2022-12-22T09:49:28.690Z,1.67
2022-12-22T09:52:28.488Z,1.79
2022-12-22T09:55:28.463Z,0.97
2022-12-22T09:58:28.655Z,1.02
2022-12-22T10:01:28.523Z,0.88
2022-12-22T10:04:28.587Z,1.09
2022-12-22T10:07:28.687Z,1.01
2022-12-22T10:10:28.612Z,1.69
2022-12-22T10:13:28.689Z,1.35
2022-12-22T10:16:28.609Z,1.57
2022-12-22T10:19:28.610Z,1.53
2022-12-22T10:22:28.663Z,1.44
2022-12-22T10:25:35.737Z,2.02
2022-12-22T10:28:28.517Z,0.86
2022-12-22T10:31:28.574Z,1.22
2022-12-22T10:34:28.744Z,1.32
2022-12-22T10:37:28.476Z,1.31
2022-12-22T10:40:28.496Z,1.1
2022-12-22T10:43:28.466Z,0.6
2022-12-22T10:46:28.629Z,1.54
2022-12-22T10:49:28.642Z,0.77
2022-12-22T10:52:30.747Z,0.9
2022-12-22T10:55:28.686Z,0.96
2022-12-22T10:58:28.511Z,0.91
2022-12-22T11:01:28.611Z,1.47
2022-12-22T11:04:28.547Z,1.26
2022-12-22T11:07:28.599Z,1.59
2022-12-22T11:10:28.719Z,1.22
2022-12-22T11:13:28.509Z,1.15
2022-12-22T11:16:28.955Z,1.79
2022-12-22T11:19:28.709Z,1.54
2022-12-22T11:22:28.610Z,1.11
2022-12-22T11:25:28.732Z,1.69
2022-12-22T11:28:28.607Z,2.19
2022-12-22T11:31:28.698Z,1.27
2022-12-22T11:34:28.556Z,1.42
2022-12-22T11:37:28.673Z,1.32
2022-12-22T11:40:28.632Z,0.6
2022-12-22T11:43:28.606Z,0.7
2022-12-22T11:46:28.733Z,1.76
2022-12-22T11:49:28.628Z,1.23
2022-12-22T11:52:28.661Z,1.38
2022-12-22T11:55:28.570Z,0.84
2022-12-22T11:58:28.686Z,1.79
2022-12-22T12:01:28.660Z,1.91
2022-12-22T12:04:28.613Z,1.42
2022-12-22T12:07:28.616Z,1.79
2022-12-22T12:10:28.647Z,1.55
2022-12-22T12:13:33.235Z,1.66
2022-12-22T12:16:28.633Z,1.49
2022-12-22T12:19:28.941Z,1.15
2022-12-22T12:22:28.662Z,1.64
2022-12-22T12:25:28.622Z,1.22
2022-12-22T12:28:28.686Z,1.54
2022-12-22T12:31:28.675Z,1.3
2022-12-22T12:34:28.815Z,1.67
2022-12-22T12:37:28.586Z,1.28
2022-12-22T12:40:28.622Z,1.37
2022-12-22T12:43:28.648Z,1.47
2022-12-22T12:46:28.758Z,1.77
2022-12-22T12:49:28.625Z,1.05
2022-12-22T12:52:28.649Z,1.31
2022-12-22T12:55:32.178Z,1.44
2022-12-22T12:58:28.702Z,1.74
2022-12-22T13:01:28.751Z,1.49
2022-12-22T13:04:31.789Z,1.63
2022-12-22T13:07:28.638Z,1.29
2022-12-22T13:10:30.008Z,1.23
2022-12-22T13:13:28.716Z,1.69
2022-12-22T13:16:28.697Z,1.62
2022-12-22T13:19:28.661Z,1.52
2022-12-22T13:22:28.647Z,1.59
2022-12-22T13:25:28.706Z,1.49
2022-12-22T13:28:28.716Z,1.25
2022-12-22T13:31:28.692Z,1.18
2022-12-22T13:34:28.723Z,1.41
2022-12-22T13:37:28.711Z,1.02
2022-12-22T13:40:28.730Z,1.36
2022-12-22T13:43:28.711Z,1.27
2022-12-22T13:46:28.730Z,1.45
2022-12-22T13:49:58.947Z,1.7
2022-12-22T13:52:28.706Z,1.83
2022-12-22T13:55:28.706Z,1.7
2022-12-22T13:58:28.685Z,1.34
2022-12-22T14:01:28.823Z,1.42
2022-12-22T14:04:28.861Z,1.53
2022-12-22T14:07:28.747Z,1.39
2022-12-22T14:10:28.753Z,1.17
2022-12-22T14:13:28.697Z,1.2
2022-12-22T14:16:28.771Z,1.22
2022-12-22T14:19:28.748Z,1.03
2022-12-22T14:22:28.789Z,1
2022-12-22T14:25:28.801Z,1.02
2022-12-22T14:28:28.709Z,0.83
2022-12-22T14:31:28.733Z,0.94
2022-12-22T14:34:28.741Z,1.21
2022-12-22T14:37:32.744Z,1.54
2022-12-22T14:40:28.784Z,1.26
2022-12-22T14:43:28.723Z,1.37
2022-12-22T14:46:32.323Z,1.41
2022-12-22T14:49:28.712Z,1.12
2022-12-22T14:52:28.807Z,1.52
2022-12-22T14:55:28.702Z,1.13
2022-12-22T14:58:28.727Z,1.64
2022-12-22T15:01:28.987Z,1.19
2022-12-22T15:04:28.757Z,1.28
2022-12-22T15:08:03.765Z,1.13
2022-12-22T15:10:28.746Z,0.78
2022-12-22T15:13:28.734Z,1.09
2022-12-22T15:16:28.790Z,1.77
2022-12-22T15:19:28.770Z,1.31
2022-12-22T15:22:28.784Z,1.52
2022-12-22T15:25:28.771Z,1.54
2022-12-22T15:28:28.799Z,1.73
2022-12-22T15:31:28.854Z,1.55
2022-12-22T15:34:28.829Z,1.05
2022-12-22T15:37:28.769Z,1.01
2022-12-22T15:40:28.843Z,1.07
2022-12-22T15:43:56.289Z,0.94
2022-12-22T15:46:28.827Z,0.98
2022-12-22T15:49:28.749Z,0.47
2022-12-22T15:52:28.767Z,1.05
2022-12-22T15:55:28.855Z,0.77
2022-12-22T15:58:28.809Z,0.54
2022-12-22T16:01:28.900Z,0.63
2022-12-22T16:04:31.778Z,0.74
2022-12-22T16:07:28.781Z,0.8
2022-12-22T16:10:28.862Z,1.33
2022-12-22T16:13:29.380Z,0.99
2022-12-22T16:16:28.889Z,0.85
2022-12-22T16:19:28.837Z,0.59
2022-12-22T16:22:28.880Z,0.8
2022-12-22T16:25:28.859Z,1.08
2022-12-22T16:28:28.891Z,0.98
2022-12-22T16:31:28.828Z,0.67
2022-12-22T16:34:28.788Z,0.75
2022-12-22T16:37:28.839Z,0.51
2022-12-22T16:40:28.856Z,1.3
2022-12-22T16:46:28.841Z,0.8
2022-12-22T16:49:28.863Z,1.14
2022-12-22T16:52:28.892Z,0.91
2022-12-22T16:55:28.879Z,0.69
2022-12-22T16:58:28.848Z,0.79
2022-12-22T17:01:28.925Z,0.66
2022-12-22T17:04:28.849Z,1.04
2022-12-22T17:07:28.812Z,1.69
2022-12-22T17:10:28.841Z,0.91
2022-12-22T17:13:29.031Z,1.11
2022-12-22T17:16:28.932Z,1.64
2022-12-22T17:19:28.867Z,0.76
2022-12-22T17:22:28.893Z,0.46
2022-12-22T17:25:30.039Z,0.81
2022-12-22T17:28:28.995Z,0.56
2022-12-22T17:31:28.942Z,0.88
2022-12-22T17:34:28.923Z,0.71
2022-12-22T17:37:28.956Z,1.24
2022-12-22T17:40:29.000Z,0.82
2022-12-22T17:43:28.870Z,0.86
2022-12-22T17:46:28.954Z,0.96
2022-12-22T17:49:28.996Z,0.77
2022-12-22T17:52:28.980Z,0.7
2022-12-22T17:56:05.607Z,0.44
2022-12-22T17:58:28.936Z,0.52
2022-12-22T18:01:29.039Z,0.36
2022-12-22T18:04:28.870Z,0.49
2022-12-22T18:07:29.005Z,0.35
2022-12-22T18:10:28.888Z,0.27
2022-12-22T18:13:28.978Z,0.26
2022-12-22T18:16:28.998Z,0.15
2022-12-22T18:19:28.973Z,0.16
2022-12-22T18:22:28.936Z,0.24
2022-12-22T18:25:28.911Z,0.5
2022-12-22T18:28:28.946Z,0.27
2022-12-22T18:31:28.973Z,0.39
2022-12-22T18:34:28.895Z,0.42
2022-12-22T18:37:28.976Z,0.16
2022-12-22T18:40:28.968Z,0.22
2022-12-22T18:43:28.939Z,0.43
2022-12-22T18:46:28.956Z,0.43
2022-12-22T18:49:28.918Z,0.56
2022-12-22T18:52:28.947Z,0.32
2022-12-22T18:55:28.990Z,0.4
2022-12-22T18:58:29.023Z,0.34
2022-12-22T19:01:29.061Z,0.34
2022-12-22T19:04:28.997Z,0.26
2022-12-22T19:07:28.947Z,0.07
2022-12-22T19:10:28.907Z,0.51
2022-12-22T19:13:28.937Z,0.57
2022-12-22T19:16:29.010Z,0.53
2022-12-22T19:19:28.991Z,0.56
2022-12-22T19:22:28.940Z,0.69
2022-12-22T19:25:28.916Z,0.61
2022-12-22T19:28:28.962Z,0.54
2022-12-22T19:31:29.115Z,0.33
2022-12-22T19:34:29.009Z,0.55
2022-12-22T19:37:29.038Z,0.64
2022-12-22T19:40:28.941Z,0.51
2022-12-22T19:43:29.081Z,0.5
2022-12-22T19:46:29.189Z,0.47
2022-12-22T19:49:29.049Z,0.54
2022-12-22T19:52:29.016Z,0.85
2022-12-22T19:55:28.953Z,0.54
2022-12-22T19:58:29.112Z,0.66
2022-12-22T20:01:29.153Z,0.77
2022-12-22T20:04:29.066Z,0.75
2022-12-22T20:07:29.029Z,0.66
2022-12-22T20:10:29.001Z,0.65
2022-12-22T20:13:29.070Z,0.67
2022-12-22T20:16:29.000Z,0.57
2022-12-22T20:19:28.978Z,0.58
2022-12-22T20:22:29.015Z,0.88
2022-12-22T20:25:29.027Z,0.41
2022-12-22T20:28:29.082Z,0.61
2022-12-22T20:31:29.086Z,0.47
2022-12-22T20:34:29.029Z,0.43
2022-12-22T20:37:29.009Z,0.31
2022-12-22T20:40:29.031Z,0.39
2022-12-22T20:43:29.083Z,0.33
2022-12-22T20:46:29.190Z,0.19
2022-12-22T20:49:29.094Z,0.5
2022-12-22T20:52:29.050Z,0.56
2022-12-22T20:55:29.105Z,0.89
2022-12-22T20:58:29.083Z,0.41
2022-12-22T21:01:29.176Z,0.54
2022-12-22T21:04:29.106Z,0.57
2022-12-22T21:07:29.130Z,0.49
2022-12-22T21:10:29.100Z,0.62
2022-12-22T21:13:29.058Z,0.46
2022-12-22T21:16:29.095Z,0.67
2022-12-22T21:19:29.123Z,0.72
2022-12-22T21:22:29.127Z,0.6
2022-12-22T21:25:29.113Z,0.91
2022-12-22T21:28:29.031Z,0.34
2022-12-22T21:31:29.100Z,0.64
2022-12-22T21:34:29.036Z,0.46
2022-12-22T21:37:29.135Z,0.46
2022-12-22T21:40:29.117Z,0.31
2022-12-22T21:43:29.220Z,0.32
2022-12-22T21:46:29.186Z,0.59
2022-12-22T21:49:29.140Z,0.58
2022-12-22T21:52:29.166Z,0.59
2022-12-22T21:55:29.124Z,0.27
2022-12-22T21:58:29.084Z,0.42
2022-12-22T22:01:29.238Z,0.24
2022-12-22T22:04:29.201Z,0.13
2022-12-22T22:07:29.130Z,0.36
2022-12-22T22:10:29.100Z,0.37
2022-12-22T22:13:29.148Z,0.54
2022-12-22T22:16:29.220Z,0.56
2022-12-22T22:19:29.108Z,0.47
2022-12-22T22:22:29.170Z,0.38
2022-12-22T22:25:29.180Z,0.28
2022-12-22T22:28:29.228Z,0.66
2022-12-22T22:31:29.176Z,0.45
2022-12-22T22:34:29.119Z,0.3
2022-12-22T22:37:29.167Z,0.21
2022-12-22T22:40:31.637Z,0.19
2022-12-22T22:43:29.220Z,0.51
2022-12-22T22:46:29.258Z,0.04
2022-12-22T22:49:29.214Z,0.29
2022-12-22T22:52:29.171Z,0.25
2022-12-22T22:55:29.228Z,0.32
2022-12-22T22:58:29.210Z,0.42
2022-12-22T23:01:29.247Z,0.26
2022-12-22T23:04:29.243Z,0.41
2022-12-22T23:07:29.196Z,0.1
2022-12-22T23:10:29.213Z,0.47
2022-12-22T23:13:29.183Z,0.62
2022-12-22T23:16:33.814Z,0.72
2022-12-22T23:19:29.225Z,0.64
2022-12-22T23:22:29.151Z,0.56
2022-12-22T23:25:29.188Z,0.36
2022-12-22T23:28:29.163Z,0.86
2022-12-22T23:31:29.310Z,1.03
2022-12-22T23:34:29.177Z,1.08
2022-12-22T23:37:29.173Z,1.17
2022-12-22T23:43:29.182Z,1.36
2022-12-22T23:46:29.215Z,0.92
2022-12-22T23:49:29.241Z,0.87
2022-12-22T23:52:29.326Z,1.07
2022-12-22T23:55:29.179Z,0.69
2022-12-22T23:58:29.200Z,0.63
